createdAt,value
2023-02-18T00:01:25.622Z,4.60
2023-02-18T00:03:54.870Z,4.35
2023-02-18T00:06:28.240Z,4.65
2023-02-18T00:09:01.944Z,4.32
2023-02-18T00:11:31.921Z,4.40
2023-02-18T00:14:02.075Z,4.28
2023-02-18T00:16:31.236Z,4.05
2023-02-18T00:19:00.902Z,4.10
2023-02-18T00:21:30.044Z,3.85
2023-02-18T00:24:00.242Z,4.47
2023-02-18T00:26:29.361Z,4.22
2023-02-18T00:28:58.116Z,4.00
2023-02-18T00:31:28.240Z,4.20
2023-02-18T00:33:57.847Z,4.60
2023-02-18T00:36:26.867Z,4.32
2023-02-18T00:38:57.499Z,3.92
2023-02-18T00:41:28.806Z,4.20
2023-02-18T00:43:57.669Z,3.95
2023-02-18T00:46:26.571Z,3.88
2023-02-18T00:48:55.630Z,4.15
2023-02-18T00:51:25.447Z,3.90
2023-02-18T00:53:54.198Z,3.90
2023-02-18T00:56:23.053Z,3.92
2023-02-18T00:58:53.264Z,3.83
2023-02-18T01:01:22.242Z,3.85
2023-02-18T01:03:50.913Z,3.60
2023-02-18T01:06:22.272Z,3.50
2023-02-18T01:08:50.959Z,4.00
2023-02-18T01:11:20.249Z,3.60
2023-02-18T01:13:49.142Z,3.33
2023-02-18T01:16:19.244Z,3.10
2023-02-18T01:18:48.193Z,3.55
2023-02-18T01:21:17.188Z,3.33
2023-02-18T01:23:45.744Z,3.13
2023-02-18T01:26:14.512Z,3.47
2023-02-18T01:28:43.001Z,3.30
2023-02-18T01:31:13.731Z,3.42
2023-02-18T01:33:44.095Z,3.38
2023-02-18T01:36:13.287Z,3.20
2023-02-18T01:38:42.045Z,3.00
2023-02-18T01:41:10.893Z,3.42
2023-02-18T01:43:40.004Z,3.35
2023-02-18T01:46:19.776Z,3.30
2023-02-18T01:48:53.083Z,3.15
2023-02-18T01:51:26.480Z,3.03
2023-02-18T01:53:57.559Z,3.20
2023-02-18T01:56:32.349Z,3.30
2023-02-18T01:59:02.924Z,2.72
2023-02-18T02:01:32.157Z,3.10
2023-02-18T02:04:02.202Z,2.95
2023-02-18T02:06:31.825Z,2.85
2023-02-18T02:09:03.798Z,3.15
2023-02-18T02:12:17.468Z,2.70
2023-02-18T02:15:01.746Z,2.90
2023-02-18T02:17:39.940Z,2.80
2023-02-18T02:20:44.010Z,2.88
2023-02-18T02:23:51.452Z,2.80
2023-02-18T02:26:53.998Z,2.80
2023-02-18T02:30:14.774Z,3.05
2023-02-18T02:33:37.419Z,2.80
2023-02-18T02:36:10.091Z,2.30
2023-02-18T02:38:42.404Z,2.60
2023-02-18T02:41:20.584Z,2.53
2023-02-18T02:43:55.345Z,2.70
2023-02-18T02:46:28.677Z,2.80
2023-02-18T02:49:00.995Z,2.42
2023-02-18T02:51:33.494Z,2.53
2023-02-18T02:54:13.509Z,2.75
2023-02-18T02:56:42.152Z,2.70
2023-02-18T02:59:16.401Z,2.80
2023-02-18T03:02:01.904Z,2.53
2023-02-18T03:04:53.912Z,2.65
2023-02-18T03:08:05.603Z,2.50
2023-02-18T03:10:49.888Z,2.60
2023-02-18T03:13:27.341Z,2.70
2023-02-18T03:15:58.283Z,2.50
2023-02-18T03:18:33.064Z,2.45
2023-02-18T03:21:05.691Z,2.40
2023-02-18T03:23:39.807Z,2.60
2023-02-18T03:26:08.988Z,2.78
2023-02-18T03:28:37.739Z,2.17
2023-02-18T03:31:10.328Z,2.38
2023-02-18T03:33:40.834Z,2.30
2023-02-18T03:36:10.928Z,2.40
2023-02-18T03:38:45.306Z,2.25
2023-02-18T03:41:14.142Z,2.00
2023-02-18T03:43:43.076Z,2.55
2023-02-18T03:46:12.641Z,2.33
2023-02-18T03:48:41.399Z,2.50
2023-02-18T03:51:10.285Z,1.92
2023-02-18T03:53:40.442Z,2.58
2023-02-18T03:56:09.443Z,2.28
2023-02-18T03:58:38.572Z,2.30
2023-02-18T04:01:07.542Z,2.30
2023-02-18T04:03:36.239Z,2.17
2023-02-18T04:06:06.217Z,2.38
2023-02-18T04:08:34.934Z,2.25
2023-02-18T04:11:05.220Z,1.80
2023-02-18T04:13:34.398Z,2.40
2023-02-18T04:16:03.093Z,2.20
2023-02-18T04:18:32.213Z,2.13
2023-02-18T04:21:01.018Z,2.45
2023-02-18T04:23:29.993Z,2.10
2023-02-18T04:25:58.406Z,2.28
2023-02-18T04:28:28.859Z,2.00
2023-02-18T04:30:57.464Z,2.20
2023-02-18T04:33:26.276Z,2.50
2023-02-18T04:35:55.198Z,2.35
2023-02-18T04:38:23.852Z,2.30
2023-02-18T04:40:52.820Z,2.15
2023-02-18T04:43:21.692Z,2.00
2023-02-18T04:45:51.888Z,2.20
2023-02-18T04:48:20.854Z,1.77
2023-02-18T04:50:49.986Z,1.95
2023-02-18T04:53:18.737Z,1.90
2023-02-18T04:55:51.887Z,2.22
2023-02-18T04:58:20.782Z,1.90
2023-02-18T05:00:49.598Z,2.00
2023-02-18T05:03:19.648Z,2.00
2023-02-18T05:05:48.888Z,1.85
2023-02-18T05:08:17.690Z,2.00
2023-02-18T05:10:46.226Z,2.10
2023-02-18T05:13:15.054Z,2.00
2023-02-18T05:15:43.748Z,1.80
2023-02-18T05:18:13.520Z,1.80
2023-02-18T05:20:43.830Z,2.05
2023-02-18T05:23:12.494Z,1.95
2023-02-18T05:25:41.346Z,2.20
2023-02-18T05:28:09.941Z,1.83
2023-02-18T05:30:38.754Z,1.92
2023-02-18T05:33:07.513Z,2.15
2023-02-18T05:35:36.302Z,1.90
2023-02-18T05:38:06.522Z,2.10
2023-02-18T05:40:35.126Z,2.10
2023-02-18T05:43:03.941Z,1.90
2023-02-18T05:45:32.733Z,1.90
2023-02-18T05:48:01.466Z,1.70
2023-02-18T05:50:30.252Z,1.90
2023-02-18T05:52:58.992Z,1.98
2023-02-18T05:55:29.308Z,1.90
2023-02-18T05:57:58.153Z,2.20
2023-02-18T06:00:26.949Z,1.90
2023-02-18T06:02:55.588Z,2.00
2023-02-18T06:05:24.264Z,1.92
2023-02-18T06:07:55.233Z,1.70
2023-02-18T06:10:24.881Z,1.90
2023-02-18T06:12:55.414Z,1.73
2023-02-18T06:15:26.937Z,1.70
2023-02-18T06:17:55.701Z,1.85
2023-02-18T06:20:24.414Z,1.73
2023-02-18T06:22:53.584Z,1.70
2023-02-18T06:25:25.172Z,1.80
2023-02-18T06:27:55.032Z,2.00
2023-02-18T06:30:24.629Z,1.70
2023-02-18T06:32:53.453Z,1.85
2023-02-18T06:35:22.406Z,1.80
2023-02-18T06:37:51.284Z,1.60
2023-02-18T06:40:20.466Z,1.70
2023-02-18T06:42:48.979Z,1.80
2023-02-18T06:45:21.795Z,1.77
2023-02-18T06:47:50.660Z,1.58
2023-02-18T06:50:20.131Z,1.90
2023-02-18T06:52:48.710Z,1.67
2023-02-18T06:55:17.406Z,1.70
2023-02-18T06:57:46.445Z,1.95
2023-02-18T07:00:16.293Z,1.65
2023-02-18T07:02:46.398Z,1.65
2023-02-18T07:05:16.043Z,1.85
2023-02-18T07:07:44.702Z,2.00
2023-02-18T07:10:13.524Z,1.52
2023-02-18T07:12:42.587Z,1.73
2023-02-18T07:15:11.709Z,1.70
2023-02-18T07:17:41.137Z,1.73
2023-02-18T07:20:11.977Z,1.55
2023-02-18T07:22:40.722Z,1.80
2023-02-18T07:25:09.992Z,1.75
2023-02-18T07:27:38.714Z,1.63
2023-02-18T07:30:09.761Z,1.60
2023-02-18T07:32:38.434Z,1.70
2023-02-18T07:35:07.976Z,1.90
2023-02-18T07:37:38.546Z,1.88
2023-02-18T07:40:09.424Z,1.80
2023-02-18T07:42:38.393Z,1.50
2023-02-18T07:45:08.156Z,1.98
2023-02-18T07:47:37.029Z,1.58
2023-02-18T07:50:06.718Z,1.70
2023-02-18T07:52:35.647Z,2.03
2023-02-18T07:55:05.712Z,3.30
2023-02-18T07:57:54.783Z,3.20
2023-02-18T08:00:23.532Z,3.97
2023-02-18T08:02:52.882Z,2.60
2023-02-18T08:05:22.031Z,2.20
2023-02-18T08:07:50.780Z,2.55
2023-02-18T08:10:22.857Z,2.75
2023-02-18T08:12:51.683Z,2.53
2023-02-18T08:15:20.627Z,2.25
2023-02-18T08:17:49.324Z,2.17
2023-02-18T08:20:18.839Z,2.20
2023-02-18T08:22:48.113Z,2.33
2023-02-18T08:25:29.072Z,1.73
2023-02-18T08:28:01.392Z,1.92
2023-02-18T08:30:30.165Z,2.50
2023-02-18T08:32:59.125Z,2.58
2023-02-18T08:35:28.238Z,1.95
2023-02-18T08:37:57.826Z,2.10
2023-02-18T08:40:27.387Z,2.45
2023-02-18T08:42:56.128Z,2.10
2023-02-18T08:45:26.067Z,3.75
2023-02-18T08:48:17.944Z,4.03
2023-02-18T08:50:43.654Z,7.88
2023-02-18T08:53:12.382Z,7.90
2023-02-18T08:55:42.087Z,6.18
2023-02-18T08:58:10.955Z,10.25
2023-02-18T09:00:41.281Z,12.52
2023-02-18T09:03:12.099Z,13.85
2023-02-18T09:05:41.423Z,6.45
2023-02-18T09:08:10.333Z,8.90
2023-02-18T09:10:39.781Z,7.72
2023-02-18T09:13:08.389Z,6.25
2023-02-18T09:15:37.018Z,5.85
2023-02-18T09:18:09.637Z,7.10
2023-02-18T09:20:38.191Z,6.60
2023-02-18T09:23:07.165Z,8.20
2023-02-18T09:25:35.756Z,8.43
2023-02-18T09:28:04.526Z,6.90
2023-02-18T09:30:33.331Z,6.88
2023-02-18T09:33:02.027Z,6.85
2023-02-18T09:35:32.333Z,7.00
2023-02-18T09:38:01.507Z,7.57
2023-02-18T09:40:32.989Z,8.05
2023-02-18T09:43:01.660Z,6.47
2023-02-18T09:45:30.402Z,7.45
2023-02-18T09:47:58.975Z,8.90
2023-02-18T09:50:29.510Z,7.88
2023-02-18T09:53:00.422Z,8.18
2023-02-18T09:55:30.704Z,8.45
2023-02-18T09:58:01.327Z,7.90
2023-02-18T10:00:33.527Z,7.35
2023-02-18T10:03:06.182Z,7.38
2023-02-18T10:05:35.317Z,8.43
2023-02-18T10:08:07.909Z,7.93
2023-02-18T10:10:40.459Z,7.15
2023-02-18T10:13:14.102Z,7.05
2023-02-18T10:15:43.265Z,7.32
2023-02-18T10:18:25.520Z,6.97
2023-02-18T10:20:55.240Z,7.65
2023-02-18T10:23:25.422Z,7.55
2023-02-18T10:25:53.974Z,7.38
2023-02-18T10:28:24.194Z,7.63
2023-02-18T10:30:56.246Z,7.18
2023-02-18T10:33:34.593Z,7.82
2023-02-18T10:36:23.353Z,6.75
2023-02-18T10:39:21.852Z,6.43
2023-02-18T10:41:57.713Z,6.95
2023-02-18T10:44:33.325Z,6.95
2023-02-18T10:47:07.909Z,6.35
2023-02-18T10:49:55.104Z,6.57
2023-02-18T10:52:23.912Z,6.28
2023-02-18T10:55:00.403Z,5.85
2023-02-18T10:57:29.173Z,6.53
2023-02-18T11:00:01.837Z,6.35
2023-02-18T11:02:32.912Z,6.38
2023-02-18T11:05:02.831Z,6.35
2023-02-18T11:07:34.040Z,5.85
2023-02-18T11:10:11.846Z,5.78
2023-02-18T11:12:46.276Z,6.35
2023-02-18T11:15:23.693Z,7.85
2023-02-18T11:17:54.061Z,18.13
2023-02-18T11:20:31.455Z,20.13
2023-02-18T11:23:18.013Z,16.67
2023-02-18T11:25:58.809Z,12.40
2023-02-18T11:28:49.207Z,16.23
2023-02-18T11:31:24.442Z,16.35
2023-02-18T11:33:54.335Z,13.48
2023-02-18T11:36:27.337Z,11.57
2023-02-18T11:38:57.085Z,10.27
2023-02-18T11:41:35.181Z,11.38
2023-02-18T11:44:04.143Z,10.75
2023-02-18T11:46:33.241Z,10.30
2023-02-18T11:49:22.407Z,9.00
2023-02-18T11:51:51.799Z,9.57
2023-02-18T11:54:26.889Z,8.45
2023-02-18T11:56:59.805Z,9.63
2023-02-18T11:59:28.592Z,8.32
2023-02-18T12:02:02.978Z,7.32
2023-02-18T12:04:34.931Z,7.43
2023-02-18T12:07:14.774Z,6.72
2023-02-18T12:09:46.694Z,7.70
2023-02-18T12:12:19.198Z,6.22
2023-02-18T12:14:47.859Z,7.95
2023-02-18T12:17:36.210Z,7.72
2023-02-18T12:20:21.004Z,6.85
2023-02-18T12:22:53.569Z,6.80
2023-02-18T12:25:35.606Z,6.65
2023-02-18T12:28:24.312Z,6.05
2023-02-18T12:31:23.013Z,6.85
2023-02-18T12:34:03.145Z,6.35
2023-02-18T12:36:42.154Z,6.28
2023-02-18T12:39:13.758Z,5.72
2023-02-18T12:42:17.897Z,6.18
2023-02-18T12:44:59.760Z,5.30
2023-02-18T12:47:48.638Z,5.80
2023-02-18T12:50:38.903Z,5.25
2023-02-18T12:53:32.394Z,5.47
2023-02-18T12:56:12.934Z,5.78
2023-02-18T12:58:49.765Z,5.25
2023-02-18T13:01:36.433Z,5.15
2023-02-18T13:04:27.582Z,5.65
2023-02-18T13:07:25.512Z,4.93
2023-02-18T13:10:06.072Z,4.90
2023-02-18T13:12:39.622Z,5.30
2023-02-18T13:15:15.435Z,5.05
2023-02-18T13:17:45.942Z,5.30
2023-02-18T13:20:20.270Z,5.07
2023-02-18T13:22:50.596Z,4.97
2023-02-18T13:25:19.682Z,4.72
2023-02-18T13:27:55.333Z,5.05
2023-02-18T13:30:27.218Z,5.03
2023-02-18T13:33:06.639Z,4.93
2023-02-18T13:35:37.624Z,5.13
2023-02-18T13:38:23.146Z,4.68
2023-02-18T13:40:52.078Z,5.03
2023-02-18T13:43:30.564Z,4.75
2023-02-18T13:46:14.470Z,4.75
2023-02-18T13:48:52.509Z,5.38
2023-02-18T13:51:30.888Z,4.80
2023-02-18T13:54:04.345Z,5.05
2023-02-18T13:56:34.315Z,5.32
2023-02-18T13:59:09.162Z,4.68
2023-02-18T14:01:43.963Z,4.88
2023-02-18T14:04:56.472Z,4.20
2023-02-18T14:07:31.395Z,4.75
2023-02-18T14:10:00.546Z,4.65
2023-02-18T14:12:38.971Z,4.55
2023-02-18T14:15:49.697Z,4.82
2023-02-18T14:18:59.656Z,4.45
2023-02-18T14:21:43.755Z,4.60
2023-02-18T14:24:13.725Z,4.70
2023-02-18T14:26:46.805Z,4.72
2023-02-18T14:29:32.095Z,4.60
2023-02-18T14:32:04.404Z,4.93
2023-02-18T14:35:23.055Z,4.70
2023-02-18T14:38:28.092Z,4.47
2023-02-18T14:41:29.720Z,4.38
2023-02-18T14:44:43.110Z,4.72
2023-02-18T14:47:22.368Z,4.35
2023-02-18T14:49:51.653Z,4.72
2023-02-18T14:52:28.470Z,4.75
2023-02-18T14:54:58.511Z,4.70
2023-02-18T14:57:33.064Z,4.60
2023-02-18T15:00:01.816Z,4.82
2023-02-18T15:02:32.303Z,4.80
2023-02-18T15:05:20.686Z,4.53
2023-02-18T15:08:00.294Z,4.35
2023-02-18T15:10:40.339Z,4.78
2023-02-18T15:13:14.115Z,4.40
2023-02-18T15:15:42.922Z,5.10
2023-02-18T15:18:20.109Z,4.95
2023-02-18T15:20:48.869Z,4.65
2023-02-18T15:23:17.882Z,4.93
2023-02-18T15:25:51.549Z,4.47
2023-02-18T15:28:25.708Z,4.68
2023-02-18T15:30:54.538Z,5.10
2023-02-18T15:33:23.395Z,4.95
2023-02-18T15:35:52.226Z,5.20
2023-02-18T15:38:22.511Z,5.00
2023-02-18T15:40:53.844Z,4.50
2023-02-18T15:43:23.489Z,4.97
2023-02-18T15:45:53.348Z,5.07
2023-02-18T15:48:31.966Z,5.05
2023-02-18T15:51:16.172Z,4.70
2023-02-18T15:53:46.597Z,5.07
2023-02-18T15:56:21.189Z,4.88
2023-02-18T15:58:49.688Z,5.35
2023-02-18T16:01:28.468Z,5.40
2023-02-18T16:03:57.227Z,5.18
2023-02-18T16:06:28.390Z,5.55
2023-02-18T16:08:59.926Z,5.10
2023-02-18T16:11:32.736Z,5.28
2023-02-18T16:14:01.421Z,5.20
2023-02-18T16:16:32.416Z,5.18
2023-02-18T16:19:01.248Z,5.18
2023-02-18T16:21:34.633Z,5.15
2023-02-18T16:24:04.189Z,5.30
2023-02-18T16:26:43.593Z,5.60
2023-02-18T16:29:15.608Z,5.20
2023-02-18T16:31:44.853Z,5.15
2023-02-18T16:34:13.519Z,4.90
2023-02-18T16:37:02.422Z,4.72
2023-02-18T16:39:32.242Z,5.20
2023-02-18T16:42:02.522Z,5.50
2023-02-18T16:44:31.185Z,5.05
2023-02-18T16:46:59.866Z,4.93
2023-02-18T16:49:28.728Z,4.75
2023-02-18T16:51:57.934Z,4.68
2023-02-18T16:54:28.682Z,5.32
2023-02-18T16:56:57.353Z,5.55
2023-02-18T16:59:27.845Z,4.50
2023-02-18T17:01:56.446Z,4.68
2023-02-18T17:04:25.494Z,5.18
2023-02-18T17:06:54.591Z,4.57
2023-02-18T17:09:27.043Z,5.13
2023-02-18T17:11:56.503Z,5.25
2023-02-18T17:14:26.598Z,5.00
2023-02-18T17:16:55.314Z,4.90
2023-02-18T17:19:24.225Z,4.75
2023-02-18T17:21:53.192Z,4.75
2023-02-18T17:24:21.978Z,4.40
2023-02-18T17:26:51.261Z,4.70
2023-02-18T17:29:20.365Z,4.43
2023-02-18T17:31:57.826Z,4.78
2023-02-18T17:34:29.144Z,4.90
2023-02-18T17:36:57.899Z,4.88
2023-02-18T17:39:26.681Z,4.55
2023-02-18T17:41:55.402Z,4.43
2023-02-18T17:44:24.737Z,4.93
2023-02-18T17:46:55.084Z,4.88
2023-02-18T17:49:23.891Z,4.45
2023-02-18T17:51:52.911Z,4.45
2023-02-18T17:54:22.841Z,4.53
2023-02-18T17:56:52.393Z,4.97
2023-02-18T17:59:20.970Z,5.10
2023-02-18T18:01:49.640Z,4.72
2023-02-18T18:04:20.601Z,4.22
2023-02-18T18:06:50.014Z,4.38
2023-02-18T18:09:18.711Z,4.25
2023-02-18T18:11:47.403Z,4.53
2023-02-18T18:14:16.360Z,4.55
2023-02-18T18:16:45.128Z,4.78
2023-02-18T18:19:14.072Z,4.88
2023-02-18T18:21:45.395Z,4.50
2023-02-18T18:24:14.503Z,4.43
2023-02-18T18:26:44.234Z,4.88
2023-02-18T18:29:12.927Z,4.45
2023-02-18T18:31:41.731Z,4.70
2023-02-18T18:34:11.336Z,4.50
2023-02-18T18:36:40.078Z,4.45
2023-02-18T18:39:10.584Z,4.70
2023-02-18T18:41:39.363Z,4.65
2023-02-18T18:44:08.136Z,4.60
2023-02-18T18:46:37.289Z,5.00
2023-02-18T18:49:05.927Z,4.70
2023-02-18T18:51:35.110Z,4.57
2023-02-18T18:54:03.792Z,4.30
2023-02-18T18:56:33.788Z,4.30
2023-02-18T18:59:02.849Z,4.03
2023-02-18T19:01:33.189Z,4.20
2023-02-18T19:04:02.012Z,3.90
2023-02-18T19:06:31.317Z,3.70
2023-02-18T19:09:00.512Z,4.10
2023-02-18T19:11:29.160Z,4.60
2023-02-18T19:13:59.285Z,4.70
2023-02-18T19:16:31.227Z,4.53
2023-02-18T19:18:59.798Z,5.30
2023-02-18T19:21:28.778Z,4.65
2023-02-18T19:23:57.382Z,5.78
2023-02-18T19:26:25.912Z,7.05
2023-02-18T19:28:54.668Z,6.85
2023-02-18T19:31:24.920Z,5.10
2023-02-18T19:33:53.676Z,7.22
2023-02-18T19:36:22.539Z,5.00
2023-02-18T19:38:51.683Z,5.90
2023-02-18T19:41:20.318Z,5.10
2023-02-18T19:43:49.040Z,4.90
2023-02-18T19:46:18.865Z,5.00
2023-02-18T19:48:52.355Z,4.43
2023-02-18T19:51:21.963Z,4.93
2023-02-18T19:53:50.524Z,5.40
2023-02-18T19:56:19.314Z,4.93
2023-02-18T19:58:48.047Z,5.68
2023-02-18T20:01:17.884Z,4.97
2023-02-18T20:03:47.471Z,4.60
2023-02-18T20:06:18.301Z,4.47
2023-02-18T20:08:47.018Z,3.80
2023-02-18T20:11:15.652Z,4.68
2023-02-18T20:13:44.225Z,4.57
2023-02-18T20:16:13.175Z,4.38
2023-02-18T20:18:42.380Z,4.50
2023-02-18T20:21:12.762Z,3.90
2023-02-18T20:23:42.736Z,4.18
2023-02-18T20:26:12.165Z,5.15
2023-02-18T20:28:41.300Z,4.22
2023-02-18T20:31:11.966Z,4.55
2023-02-18T20:33:42.396Z,3.65
2023-02-18T20:36:11.372Z,3.80
2023-02-18T20:38:41.968Z,4.07
2023-02-18T20:41:14.203Z,3.40
2023-02-18T20:43:43.003Z,3.88
2023-02-18T20:46:14.358Z,4.15
2023-02-18T20:48:43.034Z,4.03
2023-02-18T20:51:14.093Z,3.92
2023-02-18T20:53:45.113Z,3.90
2023-02-18T20:56:13.819Z,3.90
2023-02-18T20:58:42.671Z,4.05
2023-02-18T21:01:12.876Z,4.10
2023-02-18T21:03:42.287Z,3.92
2023-02-18T21:06:14.029Z,4.32
2023-02-18T21:08:45.656Z,3.58
2023-02-18T21:11:15.925Z,3.75
2023-02-18T21:13:44.527Z,3.90
2023-02-18T21:16:13.184Z,3.65
2023-02-18T21:18:41.810Z,3.58
2023-02-18T21:21:11.243Z,3.63
2023-02-18T21:23:40.347Z,3.83
2023-02-18T21:26:12.005Z,3.40
2023-02-18T21:28:40.886Z,3.30
2023-02-18T21:31:18.658Z,3.58
2023-02-18T21:33:47.494Z,3.38
2023-02-18T21:36:16.351Z,3.33
2023-02-18T21:38:45.624Z,3.22
2023-02-18T21:41:15.810Z,3.40
2023-02-18T21:43:47.328Z,3.65
2023-02-18T21:46:18.269Z,3.60
2023-02-18T21:49:06.932Z,3.22
2023-02-18T21:52:00.467Z,3.20
2023-02-18T21:54:30.199Z,3.25
2023-02-18T21:57:00.981Z,3.50
2023-02-18T21:59:30.624Z,3.17
2023-02-18T22:02:01.246Z,2.97
2023-02-18T22:04:30.793Z,3.17
2023-02-18T22:06:59.857Z,2.83
2023-02-18T22:09:28.510Z,3.15
2023-02-18T22:11:57.486Z,3.20
2023-02-18T22:14:28.003Z,3.15
2023-02-18T22:16:56.863Z,2.70
2023-02-18T22:19:25.752Z,2.88
2023-02-18T22:21:54.422Z,3.10
2023-02-18T22:24:23.274Z,3.17
2023-02-18T22:26:51.884Z,3.15
2023-02-18T22:29:21.799Z,3.22
2023-02-18T22:31:53.558Z,2.80
2023-02-18T22:34:22.944Z,3.40
2023-02-18T22:36:52.083Z,2.97
2023-02-18T22:39:20.630Z,3.47
2023-02-18T22:41:49.442Z,4.63
2023-02-18T22:44:18.541Z,4.65
2023-02-18T22:46:47.377Z,4.32
2023-02-18T22:49:17.964Z,6.35
2023-02-18T22:51:46.688Z,6.00
2023-02-18T22:54:16.939Z,6.13
2023-02-18T22:56:46.064Z,5.68
2023-02-18T22:59:15.671Z,4.80
2023-02-18T23:01:49.318Z,4.90
2023-02-18T23:04:20.852Z,4.70
2023-02-18T23:06:50.152Z,4.90
2023-02-18T23:09:21.478Z,5.35
2023-02-18T23:11:53.793Z,5.10
2023-02-18T23:14:22.563Z,4.65
2023-02-18T23:17:09.909Z,4.82
2023-02-18T23:19:41.281Z,3.80
2023-02-18T23:22:10.446Z,4.55
2023-02-18T23:24:40.953Z,4.55
2023-02-18T23:27:10.955Z,3.95
2023-02-18T23:29:40.050Z,4.65
2023-02-18T23:32:08.628Z,4.50
2023-02-18T23:34:38.249Z,4.00
2023-02-18T23:37:08.455Z,3.97
2023-02-18T23:39:37.260Z,4.03
2023-02-18T23:42:06.206Z,4.22
2023-02-18T23:44:35.088Z,4.00
2023-02-18T23:47:03.804Z,4.03
2023-02-18T23:49:32.697Z,4.15
2023-02-18T23:52:01.487Z,3.80
2023-02-18T23:54:31.353Z,3.47
2023-02-18T23:57:00.153Z,3.58
2023-02-18T23:59:28.788Z,4.13
